Time;durP1;ratioP1;P1;durP2;ratioP2;P2;SDS_P1;SDS_P2;PMS_P1;PMS_P2;Temp;Humidity;BMP_temperature;BMP_pressure;BME280_temperature;BME280_humidity;BME280_pressure;Samples;Min_cycle;Max_cycle;Signal;HPM_P1;HPM_P2
2023/03/07 00:02:08;;;;;;;;;;;4.90;99.90;;;;;;4991185;28;20112;-62
2023/03/07 00:04:33;;;;;;;;;;;4.90;99.90;;;;;;4986424;28;19917;-61
2023/03/07 00:06:59;;;;;;;;;;;4.90;99.90;;;;;;4988634;28;19914;-62
2023/03/07 00:09:24;;;;;;;;;;;4.90;99.90;;;;;;4993885;28;19921;-62
2023/03/07 00:11:50;;;;;;;;;;;4.80;99.90;;;;;;4974423;28;20498;-61
2023/03/07 00:14:15;;;;;;;;;;;4.90;99.90;;;;;;4993245;28;19957;-61
2023/03/07 00:16:40;;;;;;;;;;;4.90;99.90;;;;;;4989490;28;20008;-62
2023/03/07 00:19:06;;;;;;;;;;;4.90;99.90;;;;;;4989700;28;19980;-60
2023/03/07 00:21:32;;;;;;;;;;;4.90;99.90;;;;;;4985735;28;19917;-61
2023/03/07 00:23:58;;;;;;;;;;;4.90;99.90;;;;;;4986595;28;19918;-61
2023/03/07 00:26:24;;;;;;;;;;;4.90;99.90;;;;;;4988154;28;19924;-62
2023/03/07 00:28:50;;;;;;;;;;;4.90;99.90;;;;;;4991869;28;20008;-60
2023/03/07 00:31:17;;;;;;;;;;;4.90;99.90;;;;;;4990023;28;19961;-61
2023/03/07 00:33:42;;;;;;;;;;;5.00;99.90;;;;;;4988608;28;19928;-61
2023/03/07 00:36:16;;;;;;;;;;;5.00;99.90;;;;;;4988715;28;20000;-59
2023/03/07 00:38:42;;;;;;;;;;;5.00;99.90;;;;;;4986149;28;20323;-60
2023/03/07 00:41:10;;;;;;;;;;;5.00;99.90;;;;;;4987475;28;19920;-61
2023/03/07 00:43:36;;;;;;;;;;;5.10;99.90;;;;;;4987528;28;19914;-59
2023/03/07 00:46:02;;;;;;;;;;;5.20;99.90;;;;;;4988958;28;19920;-60
2023/03/07 00:48:27;;;;;;;;;;;5.20;99.90;;;;;;4990153;28;20007;-62
2023/03/07 00:50:53;;;;;;;;;;;5.30;99.90;;;;;;4986117;28;19918;-61
2023/03/07 00:53:19;;;;;;;;;;;5.30;99.90;;;;;;4971182;28;19945;-62
2023/03/07 00:55:56;;;;;;;;;;;5.30;99.90;;;;;;4987716;28;20036;-62
2023/03/07 00:58:22;;;;;;;;;;;5.30;99.90;;;;;;4986999;28;20467;-62
2023/03/07 01:00:47;;;;;;;;;;;5.40;99.90;;;;;;4987532;28;20033;-62
2023/03/07 01:03:13;;;;;;;;;;;5.40;99.90;;;;;;4989452;28;19929;-63
2023/03/07 01:05:39;;;;;;;;;;;5.40;99.90;;;;;;4990762;28;20021;-62
2023/03/07 01:08:04;;;;;;;;;;;5.40;99.90;;;;;;4986188;28;19917;-63
2023/03/07 01:10:32;;;;;;;;;;;5.40;99.90;;;;;;4989757;28;19918;-61
2023/03/07 01:12:58;;;;;;;;;;;5.40;99.90;;;;;;4987815;28;19925;-62
2023/03/07 01:15:23;;;;;;;;;;;5.40;99.90;;;;;;4990962;28;20043;-62
2023/03/07 01:17:48;;;;;;;;;;;5.40;99.90;;;;;;4993442;28;20004;-62
2023/03/07 01:20:14;;;;;;;;;;;5.40;99.90;;;;;;4986348;28;19926;-63
2023/03/07 01:22:39;;;;;;;;;;;5.40;99.90;;;;;;4991436;28;20394;-62
2023/03/07 01:25:05;;;;;;;;;;;5.40;99.90;;;;;;4989427;28;19917;-60
2023/03/07 01:27:30;;;;;;;;;;;5.40;99.90;;;;;;4988626;28;20013;-61
2023/03/07 01:29:56;;;;;;;;;;;5.40;99.90;;;;;;4981924;28;20009;-61
2023/03/07 01:32:21;;;;;;;;;;;5.40;99.90;;;;;;4983876;28;19957;-61
2023/03/07 01:34:47;;;;;;;;;;;5.40;99.90;;;;;;4967602;28;20454;-60
2023/03/07 01:37:12;;;;;;;;;;;5.40;99.90;;;;;;4986481;28;21868;-60
2023/03/07 01:39:38;;;;;;;;;;;5.40;99.90;;;;;;4983615;28;20012;-62
2023/03/07 01:42:03;;;;;;;;;;;5.40;99.90;;;;;;4984116;28;20311;-63
2023/03/07 01:44:29;;;;;;;;;;;5.40;99.90;;;;;;4995789;28;20016;-62
2023/03/07 01:46:55;;;;;;;;;;;5.40;99.90;;;;;;4973791;28;20374;-62
2023/03/07 01:49:41;;;;;;;;;;;5.30;99.90;;;;;;4991423;28;19914;-61
2023/03/07 01:52:09;;;;;;;;;;;5.40;99.90;;;;;;4988481;28;19914;-62
2023/03/07 01:54:37;;;;;;;;;;;5.40;99.90;;;;;;4992666;28;20311;-61
2023/03/07 01:57:03;;;;;;;;;;;5.30;99.90;;;;;;4992921;28;19961;-62
2023/03/07 01:59:35;;;;;;;;;;;5.40;99.90;;;;;;4976212;28;19925;-62
2023/03/07 02:02:10;;;;;;;;;;;5.30;99.90;;;;;;4987768;28;20004;-61
2023/03/07 02:04:51;;;;;;;;;;;5.30;99.90;;;;;;4990700;28;19914;-61
2023/03/07 02:07:19;;;;;;;;;;;5.30;99.90;;;;;;4990213;28;19945;-59
2023/03/07 02:09:46;;;;;;;;;;;5.30;99.90;;;;;;4988337;28;19917;-60
2023/03/07 02:12:12;;;;;;;;;;;5.30;99.90;;;;;;4990281;28;20564;-61
2023/03/07 02:14:41;;;;;;;;;;;5.30;99.90;;;;;;4966985;28;19921;-61
2023/03/07 02:17:06;;;;;;;;;;;5.20;99.90;;;;;;4988217;28;19914;-62
2023/03/07 02:19:58;;;;;;;;;;;5.30;99.90;;;;;;4989306;28;19918;-61
2023/03/07 02:22:24;;;;;;;;;;;5.30;99.90;;;;;;4989890;28;19922;-61
2023/03/07 02:24:52;;;;;;;;;;;5.30;99.90;;;;;;4987934;28;19917;-61
2023/03/07 02:27:17;;;;;;;;;;;5.30;99.90;;;;;;4986872;28;19918;-62
2023/03/07 02:29:43;;;;;;;;;;;5.40;99.90;;;;;;4986402;28;19921;-60
2023/03/07 02:32:08;;;;;;;;;;;5.30;99.90;;;;;;4992387;28;19914;-60
2023/03/07 02:34:34;;;;;;;;;;;5.30;99.90;;;;;;4991177;28;19922;-61
2023/03/07 02:37:14;;;;;;;;;;;5.30;99.90;;;;;;4986676;28;19996;-62
2023/03/07 02:39:41;;;;;;;;;;;5.30;99.90;;;;;;4984787;28;20431;-61
2023/03/07 02:42:08;;;;;;;;;;;5.40;99.90;;;;;;4984393;28;19920;-61
2023/03/07 02:44:34;;;;;;;;;;;5.40;99.90;;;;;;4988561;28;19920;-61
2023/03/07 02:46:59;;;;;;;;;;;5.40;99.90;;;;;;4971895;28;19917;-61
2023/03/07 02:49:25;;;;;;;;;;;5.40;99.90;;;;;;4987055;28;19921;-61
2023/03/07 02:51:50;;;;;;;;;;;5.40;99.90;;;;;;4987812;28;19918;-62
2023/03/07 02:54:16;;;;;;;;;;;5.40;99.90;;;;;;4990121;28;19913;-59
2023/03/07 02:56:41;;;;;;;;;;;5.40;99.90;;;;;;4989476;28;19913;-60
2023/03/07 02:59:07;;;;;;;;;;;5.40;99.90;;;;;;4986925;28;19922;-59
2023/03/07 03:01:32;;;;;;;;;;;5.40;99.90;;;;;;4988018;28;19914;-63
2023/03/07 03:03:57;;;;;;;;;;;5.30;99.90;;;;;;4987108;28;19913;-62
2023/03/07 03:06:23;;;;;;;;;;;5.40;99.90;;;;;;4985474;28;19928;-61
2023/03/07 03:08:48;;;;;;;;;;;5.40;99.90;;;;;;4982130;28;19992;-62
2023/03/07 03:11:14;;;;;;;;;;;5.40;99.90;;;;;;4989316;28;19914;-62
2023/03/07 03:13:39;;;;;;;;;;;5.40;99.90;;;;;;4981279;28;19957;-61
2023/03/07 03:16:05;;;;;;;;;;;5.40;99.90;;;;;;4992594;28;19921;-61
2023/03/07 03:18:31;;;;;;;;;;;5.40;99.90;;;;;;4990584;28;19917;-61
2023/03/07 03:20:56;;;;;;;;;;;5.40;99.90;;;;;;4986621;28;19968;-63
2023/03/07 03:23:22;;;;;;;;;;;5.40;99.90;;;;;;4986017;28;19980;-61
2023/03/07 03:25:57;;;;;;;;;;;5.40;99.90;;;;;;4987870;28;19997;-63
2023/03/07 03:28:22;;;;;;;;;;;5.30;99.90;;;;;;4984522;28;19921;-61
2023/03/07 03:31:01;;;;;;;;;;;5.30;99.90;;;;;;4987202;28;19917;-62
2023/03/07 03:33:30;;;;;;;;;;;5.30;99.90;;;;;;4990973;28;19971;-62
2023/03/07 03:35:57;;;;;;;;;;;5.30;99.90;;;;;;4985287;28;20014;-61
2023/03/07 03:38:22;;;;;;;;;;;5.30;99.90;;;;;;4985474;28;20303;-61
2023/03/07 03:40:48;;;;;;;;;;;5.20;99.90;;;;;;4988371;28;19914;-60
2023/03/07 03:43:13;;;;;;;;;;;5.20;99.90;;;;;;4985636;28;19917;-62
2023/03/07 03:45:39;;;;;;;;;;;5.20;99.90;;;;;;4987398;28;19917;-61
2023/03/07 03:48:05;;;;;;;;;;;5.20;99.90;;;;;;4992953;28;19914;-67
2023/03/07 03:50:30;;;;;;;;;;;5.20;99.90;;;;;;4989591;28;20292;-62
2023/03/07 03:52:56;;;;;;;;;;;5.20;99.90;;;;;;4988351;28;19914;-61
2023/03/07 03:55:21;;;;;;;;;;;5.20;99.90;;;;;;4987473;28;21287;-62
2023/03/07 03:57:46;;;;;;;;;;;5.20;99.90;;;;;;4991686;28;20298;-61
2023/03/07 04:03:15;;;;;;;;;;;5.20;99.90;;;;;;4982914;28;20017;-62
2023/03/07 04:05:40;;;;;;;;;;;5.20;99.90;;;;;;4991043;28;20008;-62
2023/03/07 04:08:06;;;;;;;;;;;5.20;99.90;;;;;;4985820;28;19949;-62
2023/03/07 04:10:31;;;;;;;;;;;5.20;99.90;;;;;;4984017;28;19918;-63
2023/03/07 04:12:57;;;;;;;;;;;5.20;99.90;;;;;;4982826;28;19914;-62
2023/03/07 04:15:22;;;;;;;;;;;5.20;99.90;;;;;;4988041;28;19973;-63
2023/03/07 04:17:48;;;;;;;;;;;5.20;99.90;;;;;;4993292;28;19913;-63
2023/03/07 04:20:16;;;;;;;;;;;5.20;99.90;;;;;;4991663;28;19921;-62
2023/03/07 04:22:41;;;;;;;;;;;5.20;99.90;;;;;;4990551;28;19918;-61
2023/03/07 04:25:07;;;;;;;;;;;5.20;99.90;;;;;;4977931;28;19932;-62
2023/03/07 04:27:34;;;;;;;;;;;5.30;99.90;;;;;;4992772;28;19925;-62
2023/03/07 04:29:59;;;;;;;;;;;5.30;99.90;;;;;;4995151;28;19949;-63
2023/03/07 04:32:25;;;;;;;;;;;5.30;99.90;;;;;;4988555;28;19964;-62
2023/03/07 04:34:51;;;;;;;;;;;5.30;99.90;;;;;;4989060;28;19969;-62
2023/03/07 04:37:16;;;;;;;;;;;5.30;99.90;;;;;;4989333;28;20368;-62
2023/03/07 04:39:41;;;;;;;;;;;5.30;99.90;;;;;;4990453;28;19925;-63
2023/03/07 04:42:07;;;;;;;;;;;5.30;99.90;;;;;;4987975;28;20703;-63
2023/03/07 04:44:32;;;;;;;;;;;5.30;99.90;;;;;;4989075;28;19957;-62
2023/03/07 04:46:58;;;;;;;;;;;5.30;99.90;;;;;;4986972;28;20303;-62
2023/03/07 04:49:23;;;;;;;;;;;5.30;99.90;;;;;;4989391;28;19914;-57
2023/03/07 04:51:49;;;;;;;;;;;5.30;99.90;;;;;;4988809;28;19941;-62
2023/03/07 04:54:14;;;;;;;;;;;5.30;99.90;;;;;;4992024;28;19918;-60
2023/03/07 04:56:40;;;;;;;;;;;5.20;99.90;;;;;;4994695;28;19914;-62
2023/03/07 04:59:05;;;;;;;;;;;5.20;99.90;;;;;;4991899;28;19971;-62
2023/03/07 05:01:30;;;;;;;;;;;5.10;99.90;;;;;;4988336;28;22022;-63
2023/03/07 05:03:56;;;;;;;;;;;5.10;99.90;;;;;;4989241;28;19972;-62
2023/03/07 05:06:21;;;;;;;;;;;5.10;99.90;;;;;;4991623;28;19956;-63
2023/03/07 05:08:47;;;;;;;;;;;5.00;99.90;;;;;;4989075;28;19914;-63
2023/03/07 05:11:12;;;;;;;;;;;5.00;99.90;;;;;;4993053;28;20536;-62
2023/03/07 05:13:38;;;;;;;;;;;5.00;99.90;;;;;;4988665;28;20368;-62
2023/03/07 05:16:04;;;;;;;;;;;5.00;99.90;;;;;;4991595;28;20576;-63
2023/03/07 05:18:29;;;;;;;;;;;5.00;99.90;;;;;;4992768;28;20000;-63
2023/03/07 05:20:54;;;;;;;;;;;5.00;99.90;;;;;;4990660;28;19922;-62
2023/03/07 05:23:20;;;;;;;;;;;5.00;99.90;;;;;;4989447;28;19918;-62
2023/03/07 05:25:46;;;;;;;;;;;5.00;99.90;;;;;;4991896;28;19936;-62
2023/03/07 05:28:11;;;;;;;;;;;4.90;99.90;;;;;;4991302;28;19922;-62
2023/03/07 05:30:37;;;;;;;;;;;4.90;99.90;;;;;;4986913;28;20371;-62
2023/03/07 05:33:02;;;;;;;;;;;4.90;99.90;;;;;;4971882;28;20360;-63
2023/03/07 05:35:28;;;;;;;;;;;4.90;99.90;;;;;;4984373;28;20049;-63
2023/03/07 05:37:53;;;;;;;;;;;4.90;99.90;;;;;;4986354;28;20470;-62
2023/03/07 05:40:19;;;;;;;;;;;4.90;99.90;;;;;;4989905;28;19918;-63
2023/03/07 05:42:44;;;;;;;;;;;4.90;99.90;;;;;;4991747;28;20860;-63
2023/03/07 05:45:10;;;;;;;;;;;4.80;99.90;;;;;;4995766;28;19913;-62
2023/03/07 05:47:36;;;;;;;;;;;4.90;99.90;;;;;;4989326;28;19918;-63
2023/03/07 05:50:01;;;;;;;;;;;4.90;99.90;;;;;;4990502;28;19914;-63
2023/03/07 05:52:27;;;;;;;;;;;4.90;99.90;;;;;;4993034;28;20286;-62
2023/03/07 05:54:53;;;;;;;;;;;4.90;99.90;;;;;;4992384;28;19998;-63
2023/03/07 05:57:18;;;;;;;;;;;4.90;99.90;;;;;;4985903;28;19925;-62
2023/03/07 05:59:44;;;;;;;;;;;4.90;99.90;;;;;;4987304;28;19925;-62
2023/03/07 06:02:09;;;;;;;;;;;5.00;99.90;;;;;;4984614;28;19922;-59
2023/03/07 06:04:35;;;;;;;;;;;5.00;99.90;;;;;;4988286;28;19914;-61
2023/03/07 06:07:00;;;;;;;;;;;5.00;99.90;;;;;;4988832;28;19922;-62
2023/03/07 06:09:27;;;;;;;;;;;5.00;99.90;;;;;;4988646;28;19953;-61
2023/03/07 06:11:52;;;;;;;;;;;5.00;99.90;;;;;;4990236;28;19920;-62
2023/03/07 06:14:17;;;;;;;;;;;5.00;99.90;;;;;;4988967;28;19918;-61
2023/03/07 06:16:43;;;;;;;;;;;5.00;99.90;;;;;;4986776;28;19914;-60
2023/03/07 06:19:08;;;;;;;;;;;5.00;99.90;;;;;;4985264;28;19925;-61
2023/03/07 06:21:34;;;;;;;;;;;5.00;99.90;;;;;;4987698;28;20394;-61
2023/03/07 06:23:59;;;;;;;;;;;5.00;99.90;;;;;;4983579;28;19918;-61
2023/03/07 06:26:25;;;;;;;;;;;5.20;99.90;;;;;;4988207;28;20356;-61
2023/03/07 06:28:50;;;;;;;;;;;5.10;99.90;;;;;;4988359;28;19922;-62
2023/03/07 06:31:17;;;;;;;;;;;5.10;99.90;;;;;;4985534;28;19920;-61
2023/03/07 06:33:43;;;;;;;;;;;5.00;99.90;;;;;;4990395;28;20327;-62
2023/03/07 06:36:13;;;;;;;;;;;5.10;99.90;;;;;;4994773;28;19920;-60
2023/03/07 06:38:38;;;;;;;;;;;5.10;99.90;;;;;;4982867;28;20058;-62
2023/03/07 06:41:04;;;;;;;;;;;5.10;99.90;;;;;;4988235;28;20001;-62
2023/03/07 06:43:30;;;;;;;;;;;5.10;99.90;;;;;;4988655;28;20369;-62
2023/03/07 06:45:55;;;;;;;;;;;5.10;99.90;;;;;;4986971;28;19928;-59
2023/03/07 06:48:21;;;;;;;;;;;5.10;99.90;;;;;;4989373;28;19917;-59
2023/03/07 06:50:46;;;;;;;;;;;5.10;99.90;;;;;;4989133;28;19918;-60
2023/03/07 06:53:12;;;;;;;;;;;5.10;99.90;;;;;;4983321;28;19922;-60
2023/03/07 06:55:37;;;;;;;;;;;5.10;99.90;;;;;;4983767;28;19928;-61
2023/03/07 06:58:03;;;;;;;;;;;5.10;99.90;;;;;;4965253;28;20004;-60
2023/03/07 07:00:28;;;;;;;;;;;5.20;99.90;;;;;;4985315;28;19918;-60
2023/03/07 07:02:54;;;;;;;;;;;5.20;99.90;;;;;;4984792;28;20443;-60
2023/03/07 07:05:19;;;;;;;;;;;5.20;99.90;;;;;;4982694;28;19917;-60
2023/03/07 07:07:45;;;;;;;;;;;5.20;99.90;;;;;;4983649;28;19918;-60
2023/03/07 07:10:11;;;;;;;;;;;5.30;99.90;;;;;;4983705;28;20398;-59
2023/03/07 07:12:36;;;;;;;;;;;5.30;99.90;;;;;;4985280;28;19914;-59
2023/03/07 07:15:04;;;;;;;;;;;5.40;99.90;;;;;;4994198;28;19974;-58
2023/03/07 07:17:37;;;;;;;;;;;5.40;99.90;;;;;;4989062;28;19914;-61
2023/03/07 07:20:06;;;;;;;;;;;5.40;99.90;;;;;;4991475;28;19921;-61
2023/03/07 07:22:32;;;;;;;;;;;5.40;99.90;;;;;;4990942;28;19913;-61
2023/03/07 07:24:57;;;;;;;;;;;5.40;99.90;;;;;;4991712;28;19918;-61
2023/03/07 07:27:23;;;;;;;;;;;5.40;99.90;;;;;;4974211;28;20310;-61
2023/03/07 07:29:48;;;;;;;;;;;5.40;99.90;;;;;;4989686;28;19936;-61
2023/03/07 07:32:14;;;;;;;;;;;5.40;99.90;;;;;;4992620;28;20276;-60
2023/03/07 07:34:39;;;;;;;;;;;5.40;99.90;;;;;;4989978;28;19913;-61
2023/03/07 07:37:05;;;;;;;;;;;5.40;99.90;;;;;;4995449;28;19909;-60
2023/03/07 07:39:30;;;;;;;;;;;5.40;99.90;;;;;;4993440;28;20009;-60
2023/03/07 07:41:56;;;;;;;;;;;5.40;99.90;;;;;;4994682;28;19922;-61
2023/03/07 07:44:21;;;;;;;;;;;5.40;99.90;;;;;;4990824;28;19921;-59
2023/03/07 07:46:46;;;;;;;;;;;5.40;99.90;;;;;;4993804;28;19914;-59
2023/03/07 07:49:12;;;;;;;;;;;5.50;99.90;;;;;;4994561;28;19960;-59
2023/03/07 07:51:39;;;;;;;;;;;5.50;99.90;;;;;;4997987;28;19921;-60
2023/03/07 07:54:05;;;;;;;;;;;5.50;99.90;;;;;;4996033;28;19918;-60
2023/03/07 07:56:31;;;;;;;;;;;5.40;99.90;;;;;;4995023;28;19920;-59
2023/03/07 07:58:56;;;;;;;;;;;5.50;99.90;;;;;;4995027;28;19976;-62
2023/03/07 08:01:23;;;;;;;;;;;5.50;99.90;;;;;;4994763;28;20397;-60
2023/03/07 08:03:49;;;;;;;;;;;5.50;99.90;;;;;;4992084;28;19913;-60
2023/03/07 08:06:18;;;;;;;;;;;5.50;99.90;;;;;;4995673;28;20001;-61
2023/03/07 08:08:44;;;;;;;;;;;5.50;99.90;;;;;;4993159;28;20001;-60
2023/03/07 08:11:09;;;;;;;;;;;5.50;99.90;;;;;;4994677;28;19956;-59
2023/03/07 08:13:35;;;;;;;;;;;5.60;99.90;;;;;;4993192;28;19975;-60
2023/03/07 08:16:07;;;;;;;;;;;5.50;99.90;;;;;;5001789;28;19998;-60
2023/03/07 08:18:32;;;;;;;;;;;5.50;99.90;;;;;;4994749;28;20291;-59
2023/03/07 08:20:58;;;;;;;;;;;5.60;99.90;;;;;;4995345;28;19909;-59
2023/03/07 08:23:24;;;;;;;;;;;5.60;99.90;;;;;;4992695;28;19909;-57
2023/03/07 08:25:50;;;;;;;;;;;5.60;99.90;;;;;;4992353;28;20303;-61
2023/03/07 08:28:15;;;;;;;;;;;5.60;99.90;;;;;;4991187;28;19988;-60
2023/03/07 08:30:41;;;;;;;;;;;5.60;99.90;;;;;;4994703;28;19953;-58
2023/03/07 08:33:06;;;;;;;;;;;5.70;99.90;;;;;;4976501;28;19914;-59
2023/03/07 08:35:32;;;;;;;;;;;5.70;99.90;;;;;;4990411;28;19914;-60
2023/03/07 08:38:00;;;;;;;;;;;5.70;99.90;;;;;;4993368;28;19909;-59
2023/03/07 08:40:27;;;;;;;;;;;5.70;99.90;;;;;;4993301;28;19928;-58
2023/03/07 08:42:54;;;;;;;;;;;5.70;99.90;;;;;;4993559;28;19946;-62
2023/03/07 08:45:22;;;;;;;;;;;5.70;99.90;;;;;;4992787;28;19914;-58
2023/03/07 08:47:50;;;;;;;;;;;5.80;99.90;;;;;;4993538;28;20273;-60
2023/03/07 08:50:16;;;;;;;;;;;5.90;99.90;;;;;;4994143;28;20549;-60
2023/03/07 08:52:42;;;;;;;;;;;5.90;99.90;;;;;;4993075;28;19914;-59
2023/03/07 08:55:07;;;;;;;;;;;6.00;99.90;;;;;;4995178;28;19920;-59
2023/03/07 08:57:33;;;;;;;;;;;6.00;99.90;;;;;;4993474;28;20295;-61
2023/03/07 08:59:58;;;;;;;;;;;6.00;99.90;;;;;;4993750;28;19914;-60
2023/03/07 09:02:24;;;;;;;;;;;6.00;99.90;;;;;;4993352;28;19917;-61
2023/03/07 09:04:49;;;;;;;;;;;6.00;99.90;;;;;;4992708;28;20383;-60
2023/03/07 09:07:15;;;;;;;;;;;6.00;99.90;;;;;;4993717;28;19967;-60
2023/03/07 09:09:40;;;;;;;;;;;6.10;99.90;;;;;;4992556;28;20331;-62
2023/03/07 09:12:06;;;;;;;;;;;6.10;99.90;;;;;;4992632;28;20303;-61
2023/03/07 09:14:31;;;;;;;;;;;6.20;99.90;;;;;;4993252;28;19913;-61
2023/03/07 09:16:57;;;;;;;;;;;6.20;99.90;;;;;;4993723;28;19910;-62
2023/03/07 09:19:22;;;;;;;;;;;6.20;99.90;;;;;;4993335;28;19924;-60
2023/03/07 09:21:48;;;;;;;;;;;6.30;99.90;;;;;;4993463;28;20442;-61
2023/03/07 09:24:13;;;;;;;;;;;6.30;99.90;;;;;;4995037;28;19933;-60
2023/03/07 09:26:39;;;;;;;;;;;6.30;99.90;;;;;;4993693;28;20340;-61
2023/03/07 09:29:04;;;;;;;;;;;6.40;99.90;;;;;;4993344;28;19910;-61
2023/03/07 09:31:30;;;;;;;;;;;6.50;99.90;;;;;;4992174;28;19914;-61
2023/03/07 09:33:55;;;;;;;;;;;6.50;99.90;;;;;;4992932;28;20020;-58
2023/03/07 09:36:22;;;;;;;;;;;6.50;99.90;;;;;;4992364;28;22306;-60
2023/03/07 09:38:48;;;;;;;;;;;6.50;99.90;;;;;;4990767;28;19910;-59
2023/03/07 09:41:16;;;;;;;;;;;6.50;99.90;;;;;;4994461;28;19914;-59
2023/03/07 09:43:46;;;;;;;;;;;6.50;99.90;;;;;;4992524;28;20311;-58
2023/03/07 09:46:43;;;;;;;;;;;6.50;99.90;;;;;;4993030;28;19992;-59
2023/03/07 09:49:12;;;;;;;;;;;6.50;99.90;;;;;;4968738;28;19917;-59
2023/03/07 09:51:39;;;;;;;;;;;6.50;99.90;;;;;;4995022;28;20406;-56
2023/03/07 09:54:19;;;;;;;;;;;6.50;99.90;;;;;;4992480;28;20000;-58
2023/03/07 09:56:55;;;;;;;;;;;6.50;99.90;;;;;;4991829;28;19993;-59
2023/03/07 09:59:39;;;;;;;;;;;6.60;99.90;;;;;;4991140;28;19984;-59
2023/03/07 10:02:14;;;;;;;;;;;6.60;99.90;;;;;;4994408;28;19920;-59
2023/03/07 10:04:45;;;;;;;;;;;6.50;99.90;;;;;;4992445;28;19910;-58
2023/03/07 10:07:11;;;;;;;;;;;6.50;99.90;;;;;;4992991;28;19916;-57
2023/03/07 10:09:37;;;;;;;;;;;6.60;99.90;;;;;;4991567;28;19914;-58
2023/03/07 10:12:03;;;;;;;;;;;6.60;99.90;;;;;;4994516;28;19914;-61
2023/03/07 10:14:28;;;;;;;;;;;6.70;99.90;;;;;;4992151;28;19914;-55
2023/03/07 10:17:00;;;;;;;;;;;6.70;99.90;;;;;;4994132;28;19972;-62
2023/03/07 10:19:54;;;;;;;;;;;6.80;99.90;;;;;;4995289;28;20372;-60
2023/03/07 10:22:29;;;;;;;;;;;6.90;99.90;;;;;;4964721;28;20423;-59
2023/03/07 10:25:05;;;;;;;;;;;7.00;99.90;;;;;;4990348;28;19917;-60
2023/03/07 10:27:31;;;;;;;;;;;6.90;99.90;;;;;;4991528;28;19910;-59
2023/03/07 10:29:58;;;;;;;;;;;6.90;99.90;;;;;;4991334;28;19928;-57
2023/03/07 10:32:43;;;;;;;;;;;6.90;99.90;;;;;;4992822;28;19960;-60
2023/03/07 10:35:18;;;;;;;;;;;6.80;99.90;;;;;;4992169;28;19935;-59
2023/03/07 10:37:47;;;;;;;;;;;6.70;99.90;;;;;;4991764;28;19965;-59
2023/03/07 10:40:22;;;;;;;;;;;6.70;99.90;;;;;;4992272;28;19921;-59
2023/03/07 10:42:47;;;;;;;;;;;6.70;99.90;;;;;;4992621;28;19917;-59
2023/03/07 10:45:13;;;;;;;;;;;6.60;99.90;;;;;;4992152;28;19916;-60
2023/03/07 10:47:39;;;;;;;;;;;6.60;99.90;;;;;;4991659;28;20301;-58
2023/03/07 10:50:08;;;;;;;;;;;6.60;99.90;;;;;;4991732;28;19910;-58
2023/03/07 10:52:52;;;;;;;;;;;6.60;99.90;;;;;;4972438;28;20010;-60
2023/03/07 10:55:36;;;;;;;;;;;6.70;99.90;;;;;;4990432;28;19941;-59
2023/03/07 10:58:18;;;;;;;;;;;6.80;99.90;;;;;;4991627;28;20383;-59
2023/03/07 11:00:45;;;;;;;;;;;6.90;99.90;;;;;;4991431;28;19922;-61
2023/03/07 11:03:22;;;;;;;;;;;6.80;99.90;;;;;;4990525;28;19914;-58
2023/03/07 11:05:48;;;;;;;;;;;6.90;99.90;;;;;;4991515;28;20372;-59
2023/03/07 11:08:23;;;;;;;;;;;6.80;99.90;;;;;;4991625;28;19917;-59
2023/03/07 11:10:49;;;;;;;;;;;6.70;99.90;;;;;;4995105;28;19957;-59
2023/03/07 11:13:15;;;;;;;;;;;6.70;99.90;;;;;;4991330;28;19945;-61
2023/03/07 11:15:41;;;;;;;;;;;6.70;99.90;;;;;;4992924;28;19914;-60
2023/03/07 11:18:23;;;;;;;;;;;6.70;99.90;;;;;;4991699;28;19910;-59
2023/03/07 11:20:49;;;;;;;;;;;6.70;99.90;;;;;;4992593;28;19918;-58
2023/03/07 11:23:15;;;;;;;;;;;6.60;99.90;;;;;;4991499;28;20093;-60
2023/03/07 11:25:41;;;;;;;;;;;6.70;99.90;;;;;;4992863;28;20131;-60
2023/03/07 11:28:24;;;;;;;;;;;6.80;99.90;;;;;;4991630;28;20427;-58
2023/03/07 11:31:09;;;;;;;;;;;6.70;99.90;;;;;;4991206;28;20360;-59
2023/03/07 11:33:45;;;;;;;;;;;6.80;99.90;;;;;;4967903;28;19988;-60
2023/03/07 11:36:15;;;;;;;;;;;6.80;99.90;;;;;;4991605;28;19916;-59
2023/03/07 11:38:41;;;;;;;;;;;6.80;99.90;;;;;;4991200;28;19911;-60
2023/03/07 11:41:09;;;;;;;;;;;6.90;99.90;;;;;;4991564;28;19968;-57
2023/03/07 11:43:41;;;;;;;;;;;6.80;99.90;;;;;;4990160;28;20343;-58
2023/03/07 11:46:24;;;;;;;;;;;6.70;99.90;;;;;;4991354;28;19989;-60
2023/03/07 11:48:55;;;;;;;;;;;6.80;99.90;;;;;;4989810;28;19910;-60
2023/03/07 11:51:33;;;;;;;;;;;6.80;99.90;;;;;;4990551;28;20456;-59
2023/03/07 11:54:02;;;;;;;;;;;6.70;99.90;;;;;;4991042;28;19910;-59
2023/03/07 11:56:31;;;;;;;;;;;6.80;99.90;;;;;;4992363;28;19914;-59
2023/03/07 11:58:59;;;;;;;;;;;6.90;99.90;;;;;;4991230;28;19925;-59
2023/03/07 12:01:34;;;;;;;;;;;6.80;99.90;;;;;;4990643;28;20419;-61
2023/03/07 12:04:10;;;;;;;;;;;6.80;99.90;;;;;;4990217;28;20380;-62
2023/03/07 12:06:50;;;;;;;;;;;6.90;99.90;;;;;;4991034;28;19922;-59
2023/03/07 12:09:21;;;;;;;;;;;6.80;99.90;;;;;;4991484;28;19909;-59
2023/03/07 12:11:46;;;;;;;;;;;6.90;99.90;;;;;;4990477;28;19917;-59
2023/03/07 12:14:21;;;;;;;;;;;6.90;99.90;;;;;;4990974;28;19916;-60
2023/03/07 12:16:49;;;;;;;;;;;6.80;99.90;;;;;;4990891;28;19933;-58
2023/03/07 12:19:17;;;;;;;;;;;6.90;99.90;;;;;;4990356;28;19918;-60
2023/03/07 12:22:01;;;;;;;;;;;6.90;99.90;;;;;;4992737;28;19916;-59
2023/03/07 12:24:30;;;;;;;;;;;6.90;99.90;;;;;;4998510;28;19968;-60
2023/03/07 12:27:17;;;;;;;;;;;6.90;99.90;;;;;;4998615;28;19956;-60
2023/03/07 12:30:09;;;;;;;;;;;6.90;99.90;;;;;;4992525;28;19921;-59
2023/03/07 12:32:36;;;;;;;;;;;6.90;99.90;;;;;;4984406;28;19910;-59
2023/03/07 12:35:08;;;;;;;;;;;6.80;99.90;;;;;;4992347;28;20391;-58
2023/03/07 12:37:39;;;;;;;;;;;6.80;99.90;;;;;;4993201;28;20390;-59
2023/03/07 12:40:16;;;;;;;;;;;6.70;99.90;;;;;;4994268;28;19914;-61
2023/03/07 12:42:57;;;;;;;;;;;6.70;99.90;;;;;;4993622;28;19922;-63
2023/03/07 12:45:23;;;;;;;;;;;6.40;99.90;;;;;;4988598;28;19921;-61
2023/03/07 12:48:05;;;;;;;;;;;6.10;99.90;;;;;;4975162;28;19952;-62
2023/03/07 12:50:46;;;;;;;;;;;5.80;99.90;;;;;;4991471;28;19918;-60
2023/03/07 12:53:31;;;;;;;;;;;5.60;99.90;;;;;;4989101;28;19940;-59
2023/03/07 12:56:03;;;;;;;;;;;5.40;99.90;;;;;;4994431;28;21826;-58
2023/03/07 12:58:40;;;;;;;;;;;5.20;99.90;;;;;;4992973;28;19968;-60
2023/03/07 13:01:14;;;;;;;;;;;5.10;99.90;;;;;;4991417;28;20002;-61
2023/03/07 13:03:44;;;;;;;;;;;5.00;99.90;;;;;;4989856;28;19914;-60
2023/03/07 13:06:15;;;;;;;;;;;4.90;99.90;;;;;;4987986;28;19914;-56
2023/03/07 13:08:42;;;;;;;;;;;4.70;99.90;;;;;;4996014;28;19935;-60
2023/03/07 13:11:15;;;;;;;;;;;4.50;99.90;;;;;;4991255;28;19914;-57
2023/03/07 13:13:41;;;;;;;;;;;4.40;99.90;;;;;;4990213;28;19914;-59
2023/03/07 13:16:09;;;;;;;;;;;4.40;99.90;;;;;;4993467;28;19975;-60
2023/03/07 13:18:34;;;;;;;;;;;4.40;99.90;;;;;;4991956;28;20000;-59
2023/03/07 13:21:11;;;;;;;;;;;4.30;99.90;;;;;;4989164;28;20528;-59
2023/03/07 13:23:36;;;;;;;;;;;4.30;99.90;;;;;;4995026;28;19965;-57
2023/03/07 13:26:06;;;;;;;;;;;4.40;99.90;;;;;;4989243;28;19925;-58
2023/03/07 13:28:45;;;;;;;;;;;4.40;99.90;;;;;;4992984;28;19933;-55
2023/03/07 13:31:10;;;;;;;;;;;4.30;99.90;;;;;;4988192;28;19925;-54
2023/03/07 13:33:36;;;;;;;;;;;4.30;99.90;;;;;;4989790;28;19918;-55
2023/03/07 13:36:01;;;;;;;;;;;4.20;99.90;;;;;;4987301;28;19924;-56
2023/03/07 13:38:39;;;;;;;;;;;4.10;99.90;;;;;;4989873;28;20004;-54
2023/03/07 13:41:05;;;;;;;;;;;4.10;99.90;;;;;;4984615;28;19972;-56
2023/03/07 13:43:34;;;;;;;;;;;4.00;99.90;;;;;;4989818;28;19917;-53
2023/03/07 13:46:00;;;;;;;;;;;4.00;99.90;;;;;;4987597;28;19925;-58
2023/03/07 13:48:25;;;;;;;;;;;3.90;99.90;;;;;;4987379;28;19972;-56
2023/03/07 13:50:51;;;;;;;;;;;3.80;99.90;;;;;;4989530;28;19934;-53
2023/03/07 13:53:19;;;;;;;;;;;3.80;99.90;;;;;;4990106;28;19914;-53
2023/03/07 13:55:45;;;;;;;;;;;3.80;99.90;;;;;;4989524;28;19920;-54
2023/03/07 13:58:17;;;;;;;;;;;3.90;99.90;;;;;;4990027;28;19918;-54
2023/03/07 14:00:49;;;;;;;;;;;3.80;99.90;;;;;;4990061;28;20696;-56
2023/03/07 14:03:35;;;;;;;;;;;3.80;99.90;;;;;;4986579;28;20008;-56
2023/03/07 14:06:03;;;;;;;;;;;3.90;99.90;;;;;;4986989;28;19957;-55
2023/03/07 14:08:32;;;;;;;;;;;3.80;99.90;;;;;;4988733;28;19979;-53
2023/03/07 14:10:57;;;;;;;;;;;3.80;99.90;;;;;;4989861;28;20292;-56
2023/03/07 14:13:32;;;;;;;;;;;3.80;99.90;;;;;;4984434;28;19918;-54
2023/03/07 14:16:02;;;;;;;;;;;3.80;99.90;;;;;;4986802;28;19956;-55
2023/03/07 14:18:46;;;;;;;;;;;3.80;99.90;;;;;;4988504;28;20376;-55
2023/03/07 14:21:20;;;;;;;;;;;3.80;99.90;;;;;;4984615;28;20284;-56
2023/03/07 14:24:06;;;;;;;;;;;3.60;99.90;;;;;;4993853;28;19937;-52
2023/03/07 14:26:34;;;;;;;;;;;3.50;99.90;;;;;;4989742;28;19924;-56
2023/03/07 14:29:00;;;;;;;;;;;;;;;;;;4989951;28;20395;-55
2023/03/07 14:31:26;;;;;;;;;;;;;;;;;;4992837;28;19914;-57
2023/03/07 14:33:52;;;;;;;;;;;;;;;;;;4991238;28;19918;-57
2023/03/07 14:36:18;;;;;;;;;;;;;;;;;;4993504;28;19917;-56
2023/03/07 14:38:44;;;;;;;;;;;;;;;;;;4992426;28;19922;-54
2023/03/07 14:41:10;;;;;;;;;;;;;;;;;;4989516;28;19918;-53
2023/03/07 14:43:36;;;;;;;;;;;;;;;;;;4989767;28;19968;-58